Time;durP1;ratioP1;P1;durP2;ratioP2;P2;SDS_P1;SDS_P2;PMS_P1;PMS_P2;Temp;Humidity;BMP_temperature;BMP_pressure;BME280_temperature;BME280_humidity;BME280_pressure;Samples;Min_cycle;Max_cycle;Signal;HPM_P1;HPM_P2
2022/04/13 00:00:32;;;;;;;21.40;10.33;;;2.80;99.90;;;;;;4879868;29;20207;-66
2022/04/13 00:02:58;;;;;;;16.47;9.03;;;2.70;99.90;;;;;;4879938;29;20219;-66
2022/04/13 00:05:25;;;;;;;18.20;10.03;;;2.70;99.90;;;;;;4879035;29;20196;-66
2022/04/13 00:07:50;;;;;;;23.87;8.33;;;2.70;99.90;;;;;;4880307;29;20178;-66
2022/04/13 00:10:16;;;;;;;17.37;9.97;;;2.60;99.90;;;;;;4879814;29;20235;-66
2022/04/13 00:12:42;;;;;;;19.13;9.10;;;2.60;99.90;;;;;;4880367;29;20188;-66
2022/04/13 00:15:09;;;;;;;18.13;9.07;;;2.60;99.90;;;;;;4880020;29;20584;-65
2022/04/13 00:17:36;;;;;;;19.37;9.57;;;2.60;99.90;;;;;;4879953;29;20190;-65
2022/04/13 00:20:03;;;;;;;16.77;9.53;;;2.60;99.90;;;;;;4879962;29;20189;-66
2022/04/13 00:22:29;;;;;;;18.47;9.70;;;2.60;99.90;;;;;;4879454;29;20290;-66
2022/04/13 00:24:55;;;;;;;16.23;8.70;;;2.50;99.90;;;;;;4879989;29;20187;-66
2022/04/13 00:27:20;;;;;;;17.07;8.87;;;2.50;99.90;;;;;;4879459;29;20179;-66
2022/04/13 00:29:46;;;;;;;17.73;9.47;;;2.50;99.90;;;;;;4879736;29;20258;-66
2022/04/13 00:32:12;;;;;;;18.13;8.90;;;2.60;99.90;;;;;;4879146;29;20630;-66
2022/04/13 00:34:38;;;;;;;16.67;8.67;;;2.60;99.90;;;;;;4880076;29;20184;-66
2022/04/13 00:37:04;;;;;;;14.57;8.30;;;2.60;99.90;;;;;;4879488;29;20187;-67
2022/04/13 00:39:29;;;;;;;18.30;8.53;;;2.50;99.90;;;;;;4879297;29;20521;-67
2022/04/13 00:42:06;;;;;;;14.77;7.60;;;2.50;99.90;;;;;;4879214;29;20188;-66
2022/04/13 00:44:33;;;;;;;14.53;8.17;;;2.50;99.90;;;;;;4877803;29;20302;-66
2022/04/13 00:47:03;;;;;;;14.33;6.10;;;2.50;99.90;;;;;;4879287;29;20713;-66
2022/04/13 00:49:29;;;;;;;14.07;7.70;;;2.50;99.90;;;;;;4879130;29;20189;-66
2022/04/13 00:51:58;;;;;;;19.67;8.13;;;2.60;99.90;;;;;;4879146;29;20250;-65
2022/04/13 00:54:28;;;;;;;9.03;4.73;;;2.60;99.90;;;;;;4878816;29;20226;-66
2022/04/13 00:56:55;;;;;;;18.80;7.63;;;2.50;99.90;;;;;;4879101;29;20233;-66
2022/04/13 00:59:24;;;;;;;14.50;8.10;;;2.60;99.90;;;;;;4878735;29;20185;-66
2022/04/13 01:01:53;;;;;;;14.30;7.33;;;2.50;99.90;;;;;;4846925;29;20195;-66
2022/04/13 01:04:19;;;;;;;18.23;8.60;;;2.50;99.90;;;;;;4878984;29;20577;-66
2022/04/13 01:06:45;;;;;;;16.00;8.23;;;2.50;99.90;;;;;;4879028;29;20186;-66
2022/04/13 01:09:12;;;;;;;18.50;8.17;;;2.40;99.90;;;;;;4879027;29;20185;-66
2022/04/13 01:11:38;;;;;;;10.13;5.90;;;2.40;99.90;;;;;;4878651;29;20695;-66
2022/04/13 01:14:04;;;;;;;15.33;7.90;;;2.40;99.90;;;;;;4878754;29;20214;-66
2022/04/13 01:16:30;;;;;;;16.87;7.30;;;2.40;99.90;;;;;;4861659;29;20186;-66
2022/04/13 01:18:56;;;;;;;17.40;8.57;;;2.40;99.90;;;;;;4878644;29;20192;-67
2022/04/13 01:22:03;;;;;;;16.13;7.90;;;2.40;99.90;;;;;;4878653;29;20194;-66
2022/04/13 01:24:29;;;;;;;17.33;8.13;;;2.40;99.90;;;;;;4820868;29;20229;-65
2022/04/13 01:26:56;;;;;;;14.40;7.77;;;2.40;99.90;;;;;;4869572;29;20608;-66
2022/04/13 01:29:21;;;;;;;12.07;6.47;;;2.40;99.90;;;;;;4878172;29;20189;-66
2022/04/13 01:31:49;;;;;;;13.57;7.60;;;2.40;99.90;;;;;;4878755;29;20265;-66
2022/04/13 01:34:15;;;;;;;13.10;7.47;;;2.40;99.90;;;;;;4878315;29;20526;-66
2022/04/13 01:36:41;;;;;;;17.80;7.67;;;2.40;99.90;;;;;;4861631;29;20256;-66
2022/04/13 01:39:08;;;;;;;10.97;6.07;;;2.40;99.90;;;;;;4878456;29;20536;-66
2022/04/13 01:41:34;;;;;;;16.87;6.67;;;2.40;99.90;;;;;;4878068;29;20713;-66
2022/04/13 01:44:00;;;;;;;13.00;6.83;;;2.40;99.90;;;;;;4878232;29;20217;-66
2022/04/13 01:46:25;;;;;;;13.63;6.93;;;2.40;99.90;;;;;;4878273;29;20702;-65
2022/04/13 01:48:51;;;;;;;12.53;5.90;;;2.40;99.90;;;;;;4878371;29;20187;-66
2022/04/13 01:51:20;;;;;;;11.37;6.17;;;2.40;99.90;;;;;;4878051;29;20242;-65
2022/04/13 01:53:47;;;;;;;12.07;6.53;;;2.40;99.90;;;;;;4861465;29;20290;-65
2022/04/13 01:56:13;;;;;;;15.73;6.77;;;2.40;99.90;;;;;;4878132;29;20230;-65
2022/04/13 01:58:38;;;;;;;13.93;7.20;;;2.40;99.90;;;;;;4878350;29;20181;-65
2022/04/13 02:01:04;;;;;;;11.27;6.93;;;2.30;99.90;;;;;;4878369;29;20174;-66
2022/04/13 02:03:30;;;;;;;11.10;6.23;;;2.30;99.90;;;;;;4877229;29;20217;-66
2022/04/13 02:05:56;;;;;;;11.63;6.63;;;2.30;99.90;;;;;;4878077;29;20203;-66
2022/04/13 02:08:22;;;;;;;11.43;6.83;;;2.30;99.90;;;;;;4877772;29;20193;-66
2022/04/13 02:10:49;;;;;;;13.30;6.97;;;2.30;99.90;;;;;;4877967;29;20635;-66
2022/04/13 02:13:15;;;;;;;13.30;7.00;;;2.20;99.90;;;;;;4877891;29;20245;-66
2022/04/13 02:15:41;;;;;;;13.20;6.13;;;2.30;99.90;;;;;;4878048;29;20261;-66
2022/04/13 02:18:07;;;;;;;13.97;7.00;;;2.20;99.90;;;;;;4877932;29;20270;-66
2022/04/13 02:20:33;;;;;;;14.17;6.90;;;2.20;99.90;;;;;;4877596;29;20187;-66
2022/04/13 02:23:01;;;;;;;13.23;6.70;;;2.30;99.90;;;;;;4877529;29;20234;-65
2022/04/13 02:25:28;;;;;;;11.93;5.57;;;2.20;99.90;;;;;;4877677;29;20815;-65
2022/04/13 02:27:53;;;;;;;11.40;5.97;;;2.30;99.90;;;;;;4878121;29;20190;-66
2022/04/13 02:30:19;;;;;;;11.40;5.07;;;2.20;99.90;;;;;;4880820;29;20186;-65
2022/04/13 02:32:45;;;;;;;12.50;6.17;;;2.20;99.90;;;;;;4881655;29;20229;-65
2022/04/13 02:35:14;;;;;;;12.23;5.63;;;2.20;99.90;;;;;;4881468;29;20588;-65
2022/04/13 02:37:40;;;;;;;15.97;6.70;;;2.20;99.90;;;;;;4881319;29;20219;-66
2022/04/13 02:40:07;;;;;;;14.73;6.67;;;2.20;99.90;;;;;;4881412;29;20655;-66
2022/04/13 02:42:36;;;;;;;13.30;6.30;;;2.20;99.90;;;;;;4881059;29;20721;-65
2022/04/13 02:45:04;;;;;;;10.87;5.60;;;2.20;99.90;;;;;;4880208;29;20568;-66
2022/04/13 02:47:32;;;;;;;12.57;6.07;;;2.20;99.90;;;;;;4880788;29;20177;-66
2022/04/13 02:50:00;;;;;;;13.07;6.73;;;2.20;99.90;;;;;;4881570;29;20185;-66
2022/04/13 02:52:28;;;;;;;13.03;5.53;;;2.20;99.90;;;;;;4881075;29;20185;-67
2022/04/13 02:54:57;;;;;;;11.30;5.77;;;2.20;99.90;;;;;;4881041;29;20238;-66
2022/04/13 02:57:23;;;;;;;11.13;6.53;;;2.20;99.90;;;;;;4880939;29;20555;-66
2022/04/13 02:59:49;;;;;;;15.07;6.87;;;2.20;99.90;;;;;;4881035;29;20187;-66
2022/04/13 03:02:19;;;;;;;14.40;7.33;;;2.20;99.90;;;;;;4880867;29;20683;-66
2022/04/13 03:04:49;;;;;;;16.53;6.73;;;2.20;99.90;;;;;;4880961;29;20214;-66
2022/04/13 03:07:17;;;;;;;8.27;5.90;;;2.20;99.90;;;;;;4881155;29;20188;-67
2022/04/13 03:09:43;;;;;;;13.77;6.77;;;2.20;99.90;;;;;;4880854;29;20178;-66
2022/04/13 03:12:10;;;;;;;15.33;6.83;;;2.20;99.90;;;;;;4879603;29;20563;-67
2022/04/13 03:14:38;;;;;;;12.23;6.10;;;2.20;99.90;;;;;;4881058;29;20216;-66
2022/04/13 03:17:04;;;;;;;11.47;6.23;;;2.30;99.90;;;;;;4880796;29;20179;-66
2022/04/13 03:19:29;;;;;;;14.97;6.93;;;2.30;99.90;;;;;;4880757;29;20580;-66
2022/04/13 03:21:55;;;;;;;13.13;6.27;;;2.30;99.90;;;;;;4880729;29;20187;-67
2022/04/13 03:24:22;;;;;;;13.40;6.40;;;2.30;99.90;;;;;;4880192;29;20289;-66
2022/04/13 03:26:48;;;;;;;12.73;6.97;;;2.20;99.90;;;;;;4880677;29;20253;-66
2022/04/13 03:29:14;;;;;;;15.07;7.17;;;2.20;99.90;;;;;;4880290;29;20276;-67
2022/04/13 03:31:40;;;;;;;13.10;6.20;;;2.30;99.90;;;;;;4880230;29;20294;-66
2022/04/13 03:34:05;;;;;;;14.93;6.37;;;2.30;99.90;;;;;;4863679;29;20190;-66
2022/04/13 03:36:32;;;;;;;12.27;6.23;;;2.30;99.90;;;;;;4879984;29;20214;-65
2022/04/13 03:38:58;;;;;;;12.73;6.77;;;2.30;99.90;;;;;;4880145;29;20497;-66
2022/04/13 03:41:23;;;;;;;14.80;7.17;;;2.30;99.90;;;;;;4879952;29;20186;-67
2022/04/13 03:43:49;;;;;;;11.23;6.50;;;2.30;99.90;;;;;;4863212;29;20214;-67
2022/04/13 03:46:15;;;;;;;15.90;6.23;;;2.30;99.90;;;;;;4878908;29;20532;-66
2022/04/13 03:48:41;;;;;;;11.87;6.03;;;2.30;99.90;;;;;;4879640;29;20675;-66
2022/04/13 03:51:06;;;;;;;13.80;7.45;;;2.40;99.90;;;;;;4878863;29;20416;-66
2022/04/13 03:53:32;;;;;;;13.50;6.40;;;2.50;99.90;;;;;;4879582;29;20239;-65
2022/04/13 03:55:58;;;;;;;13.47;6.23;;;2.50;99.90;;;;;;4879730;29;20243;-66
2022/04/13 03:58:23;;;;;;;12.43;6.93;;;2.50;99.90;;;;;;4879417;29;20191;-66
2022/04/13 04:00:49;;;;;;;14.67;5.87;;;2.60;99.90;;;;;;4879259;29;20190;-66
2022/04/13 04:03:15;;;;;;;12.43;5.90;;;2.60;99.90;;;;;;4879967;29;20226;-66
2022/04/13 04:05:41;;;;;;;20.70;6.43;;;2.60;99.90;;;;;;4879436;29;20245;-65
2022/04/13 04:08:07;;;;;;;12.67;5.23;;;2.70;99.90;;;;;;4879578;29;20245;-65
2022/04/13 04:10:33;;;;;;;11.47;5.27;;;2.80;99.90;;;;;;4879596;29;20186;-65
2022/04/13 04:12:58;;;;;;;10.73;5.83;;;2.80;99.90;;;;;;4879295;29;20187;-65
2022/04/13 04:15:24;;;;;;;14.33;6.03;;;2.80;99.90;;;;;;4879300;29;20188;-66
2022/04/13 04:17:50;;;;;;;13.47;5.03;;;2.90;99.90;;;;;;4879296;29;20184;-65
2022/04/13 04:20:16;;;;;;;13.07;5.13;;;2.90;99.90;;;;;;4879575;29;20734;-66
2022/04/13 04:22:42;;;;;;;15.27;5.90;;;3.00;99.90;;;;;;4878823;29;20282;-66
2022/04/13 04:25:08;;;;;;;16.50;5.90;;;3.00;99.90;;;;;;4879181;29;20530;-66
2022/04/13 04:27:34;;;;;;;10.27;5.20;;;3.00;99.90;;;;;;4862382;29;20187;-65
2022/04/13 04:30:00;;;;;;;11.50;5.23;;;3.10;99.90;;;;;;4878988;29;20192;-66
2022/04/13 04:32:26;;;;;;;21.23;6.40;;;3.10;99.90;;;;;;4878859;29;20180;-67
2022/04/13 04:34:52;;;;;;;12.40;6.13;;;3.10;99.90;;;;;;4878524;29;20642;-66
2022/04/13 04:37:18;;;;;;;18.10;5.70;;;3.20;99.90;;;;;;4878838;29;20188;-66
2022/04/13 04:39:44;;;;;;;12.90;5.50;;;3.20;99.90;;;;;;4878386;29;20191;-67
2022/04/13 04:42:10;;;;;;;12.70;6.00;;;3.30;99.90;;;;;;4878571;29;20247;-67
2022/04/13 04:44:36;;;;;;;14.90;5.90;;;3.40;99.90;;;;;;4877802;29;20218;-66
2022/04/13 04:47:02;;;;;;;12.33;6.07;;;3.40;99.90;;;;;;4878902;29;20510;-66
2022/04/13 04:49:28;;;;;;;12.83;5.37;;;3.50;99.90;;;;;;4877124;29;20184;-66
2022/04/13 04:51:54;;;;;;;13.40;5.43;;;3.60;99.90;;;;;;4877781;29;20202;-66
2022/04/13 04:54:20;;;;;;;10.67;5.93;;;3.60;99.90;;;;;;4878845;29;20183;-66
2022/04/13 04:56:46;;;;;;;14.20;6.20;;;3.70;99.90;;;;;;4877205;29;20239;-57
2022/04/13 04:59:12;;;;;;;17.13;6.53;;;3.80;99.90;;;;;;4880224;29;20196;-57
2022/04/13 05:01:37;;;;;;;11.43;5.03;;;3.90;99.90;;;;;;4875192;29;20239;-60
2022/04/13 05:04:03;;;;;;;14.07;5.47;;;4.00;99.90;;;;;;4875197;29;20319;-63
2022/04/13 05:06:29;;;;;;;10.73;5.33;;;4.10;99.90;;;;;;4876204;29;20227;-61
2022/04/13 05:08:56;;;;;;;10.40;5.67;;;4.10;99.90;;;;;;4858767;29;20239;-59
2022/04/13 05:11:22;;;;;;;17.13;5.97;;;4.20;99.90;;;;;;4876234;29;20188;-58
2022/04/13 05:13:49;;;;;;;12.67;5.83;;;4.20;99.90;;;;;;4875441;29;20359;-61
2022/04/13 05:16:15;;;;;;;15.50;6.27;;;4.30;99.90;;;;;;4876230;29;20302;-61
2022/04/13 05:18:43;;;;;;;15.37;5.47;;;4.30;99.90;;;;;;4877007;29;20192;-57
2022/04/13 05:21:09;;;;;;;17.47;7.13;;;4.40;99.90;;;;;;4877858;29;20585;-65
2022/04/13 05:23:36;;;;;;;13.73;6.30;;;4.50;99.90;;;;;;4877252;29;20231;-67
2022/04/13 05:26:01;;;;;;;9.87;5.77;;;4.50;99.90;;;;;;4877533;29;20185;-66
2022/04/13 05:28:29;;;;;;;18.63;5.90;;;4.60;99.90;;;;;;4876019;29;20200;-61
2022/04/13 05:30:55;;;;;;;12.93;5.57;;;4.70;99.90;;;;;;4876037;29;20200;-62
2022/04/13 05:33:21;;;;;;;11.50;5.57;;;4.80;99.90;;;;;;4874480;29;20582;-65
2022/04/13 05:35:46;;;;;;;10.50;5.70;;;4.90;99.90;;;;;;4870997;29;20194;-61
2022/04/13 05:38:12;;;;;;;27.13;6.27;;;5.00;99.90;;;;;;4874264;29;20252;-61
2022/04/13 05:40:38;;;;;;;9.70;3.77;;;5.10;99.90;;;;;;4871072;29;20291;-61
2022/04/13 05:43:04;;;;;;;17.13;5.40;;;5.20;99.90;;;;;;4863350;29;20221;-69
2022/04/13 05:45:30;;;;;;;14.13;5.90;;;5.20;99.90;;;;;;4870030;29;20211;-61
2022/04/13 05:47:56;;;;;;;15.07;4.87;;;5.30;99.90;;;;;;4871649;29;20203;-56
2022/04/13 05:50:23;;;;;;;13.93;5.60;;;5.40;99.90;;;;;;4876963;29;20200;-60
2022/04/13 05:52:48;;;;;;;10.13;5.53;;;5.40;99.90;;;;;;4877345;29;20203;-54
2022/04/13 05:55:15;;;;;;;13.07;5.23;;;5.50;99.90;;;;;;4877177;29;20601;-58
2022/04/13 05:57:41;;;;;;;23.13;7.37;;;5.60;99.90;;;;;;4876949;29;20208;-63
2022/04/13 06:00:10;;;;;;;13.30;5.93;;;5.70;99.90;;;;;;4876442;29;20205;-63
2022/04/13 06:02:36;;;;;;;7.00;3.90;;;5.80;99.90;;;;;;4859259;29;20208;-60
2022/04/13 06:05:06;;;;;;;13.67;5.53;;;5.90;99.90;;;;;;4875944;29;20262;-61
2022/04/13 06:07:32;;;;;;;14.10;5.67;;;6.10;99.90;;;;;;4869345;29;20182;-62
2022/04/13 06:10:05;;;;;;;16.30;5.20;;;6.10;99.70;;;;;;4870901;29;20204;-60
2022/04/13 06:12:31;;;;;;;12.37;5.80;;;6.30;99.60;;;;;;4866296;29;20264;-62
2022/04/13 06:15:05;;;;;;;14.57;5.10;;;6.30;99.40;;;;;;4874948;29;20205;-62
2022/04/13 06:17:31;;;;;;;15.70;5.27;;;6.40;99.20;;;;;;4876544;29;20194;-63
2022/04/13 06:19:57;;;;;;;12.27;5.70;;;6.50;99.10;;;;;;4876578;29;20519;-60
2022/04/13 06:22:23;;;;;;;14.20;5.43;;;6.40;99.10;;;;;;4876830;29;20201;-61
2022/04/13 06:24:51;;;;;;;15.03;5.70;;;6.50;99.00;;;;;;4874672;29;20285;-62
2022/04/13 06:27:19;;;;;;;38.83;8.80;;;6.70;99.00;;;;;;4867343;29;20201;-56
2022/04/13 06:29:45;;;;;;;11.57;6.43;;;6.80;98.80;;;;;;4875024;29;20205;-62
2022/04/13 06:32:12;;;;;;;27.20;5.47;;;6.80;98.60;;;;;;4843763;29;20290;-61
2022/04/13 06:34:38;;;;;;;15.17;4.53;;;6.90;98.80;;;;;;4874458;29;20651;-67
2022/04/13 06:37:04;;;;;;;10.97;5.00;;;7.00;98.20;;;;;;4875007;29;20203;-65
2022/04/13 06:39:30;;;;;;;13.63;4.37;;;7.00;98.00;;;;;;4858537;29;20192;-64
2022/04/13 06:41:55;;;;;;;11.77;4.70;;;7.00;97.90;;;;;;4876312;29;20218;-65
2022/04/13 06:44:21;;;;;;;7.83;3.83;;;7.00;97.80;;;;;;4871032;29;20303;-62
2022/04/13 06:46:47;;;;;;;16.50;4.47;;;7.10;97.40;;;;;;4873255;29;20195;-61
2022/04/13 06:49:13;;;;;;;8.60;3.33;;;7.20;97.20;;;;;;4874394;29;20219;-56
2022/04/13 06:51:38;;;;;;;11.63;3.63;;;7.20;97.10;;;;;;4874332;29;20204;-61
2022/04/13 06:54:04;;;;;;;17.60;4.90;;;7.30;97.20;;;;;;4873496;29;20672;-58
2022/04/13 06:56:32;;;;;;;6.33;3.00;;;7.40;97.10;;;;;;4873687;29;20236;-61
2022/04/13 06:58:58;;;;;;;8.83;4.33;;;7.50;96.50;;;;;;4874424;29;20215;-60
2022/04/13 07:01:24;;;;;;;10.80;3.97;;;7.60;96.40;;;;;;4875032;29;20207;-54
2022/04/13 07:03:50;;;;;;;14.60;4.17;;;7.70;96.00;;;;;;4875844;29;20673;-58
2022/04/13 07:06:15;;;;;;;9.63;3.83;;;7.60;96.10;;;;;;4874741;29;20196;-65
2022/04/13 07:08:41;;;;;;;12.37;4.07;;;7.60;96.20;;;;;;4876497;29;20241;-65
2022/04/13 07:11:07;;;;;;;18.83;4.07;;;7.70;96.20;;;;;;4863974;29;20199;-63
2022/04/13 07:13:33;;;;;;;16.57;4.33;;;7.90;96.00;;;;;;4875568;29;20542;-61
2022/04/13 07:15:58;;;;;;;9.20;3.43;;;8.00;96.00;;;;;;4877874;29;20233;-61
2022/04/13 07:18:25;;;;;;;10.13;3.57;;;8.00;95.60;;;;;;4879208;29;20634;-62
2022/04/13 07:20:51;;;;;;;7.27;3.33;;;8.00;95.70;;;;;;4879682;29;20219;-62
2022/04/13 07:23:18;;;;;;;12.20;4.03;;;8.10;95.60;;;;;;4879597;29;20227;-67
2022/04/13 07:25:44;;;;;;;10.23;3.23;;;8.20;95.40;;;;;;4879731;29;20200;-70
2022/04/13 07:28:10;;;;;;;10.17;2.83;;;8.30;94.60;;;;;;4879635;29;20192;-69
2022/04/13 07:30:36;;;;;;;13.93;4.00;;;8.30;94.80;;;;;;4878901;29;20208;-70
2022/04/13 07:33:02;;;;;;;7.97;2.80;;;8.40;94.70;;;;;;4862087;29;20202;-70
2022/04/13 07:35:29;;;;;;;7.60;2.27;;;8.40;94.40;;;;;;4863936;29;20200;-70
2022/04/13 07:37:56;;;;;;;10.40;3.23;;;8.50;94.30;;;;;;4861350;29;20193;-72
2022/04/13 07:40:22;;;;;;;8.97;3.10;;;8.60;93.80;;;;;;4860780;29;20204;-70
2022/04/13 07:42:48;;;;;;;8.40;3.27;;;8.70;94.10;;;;;;4860362;29;20221;-73
2022/04/13 07:45:14;;;;;;;12.77;3.10;;;8.80;94.10;;;;;;4874751;29;20658;-71
2022/04/13 07:47:40;;;;;;;12.87;2.93;;;9.10;93.30;;;;;;4879396;29;20236;-70
2022/04/13 07:50:11;;;;;;;8.43;2.93;;;9.20;92.60;;;;;;4878654;29;20174;-70
2022/04/13 07:52:37;;;;;;;5.40;2.40;;;9.40;91.90;;;;;;4877866;29;20181;-72
2022/04/13 07:55:03;;;;;;;5.07;1.97;;;9.50;90.90;;;;;;4878906;29;20312;-72
2022/04/13 07:57:29;;;;;;;4.93;1.73;;;9.40;90.50;;;;;;4895630;29;20636;-72
2022/04/13 07:59:55;;;;;;;3.63;1.50;;;9.30;89.90;;;;;;4880924;29;20264;-73
2022/04/13 08:02:22;;;;;;;6.20;2.23;;;9.30;89.70;;;;;;4897979;29;20187;-73
2022/04/13 08:04:48;;;;;;;6.13;2.10;;;9.30;90.20;;;;;;4895769;29;20293;-73
2022/04/13 08:07:14;;;;;;;4.50;1.87;;;9.40;89.50;;;;;;4895871;29;20181;-70
2022/04/13 08:09:40;;;;;;;5.43;2.33;;;9.50;89.70;;;;;;4895342;29;20202;-70
2022/04/13 08:12:06;;;;;;;10.67;1.97;;;9.50;89.30;;;;;;4895913;29;20185;-70
2022/04/13 08:14:32;;;;;;;6.27;2.03;;;9.50;88.50;;;;;;4873987;29;20183;-71
2022/04/13 08:16:57;;;;;;;6.20;2.47;;;9.60;88.00;;;;;;4857224;29;20538;-72
2022/04/13 08:19:23;;;;;;;8.23;2.17;;;9.80;88.60;;;;;;4871868;29;20215;-72
2022/04/13 08:21:50;;;;;;;4.27;1.93;;;9.90;86.10;;;;;;4877463;29;20225;-72
2022/04/13 08:24:18;;;;;;;4.87;1.70;;;9.90;84.00;;;;;;4878400;29;20230;-72
2022/04/13 08:26:44;;;;;;;9.20;2.13;;;9.80;83.40;;;;;;4861349;29;20701;-72
2022/04/13 08:29:10;;;;;;;8.17;1.90;;;9.80;83.20;;;;;;4878050;29;20187;-71
2022/04/13 08:31:37;;;;;;;7.53;2.33;;;9.90;82.80;;;;;;4878411;29;20279;-70
2022/04/13 08:34:03;;;;;;;4.20;1.93;;;10.00;83.50;;;;;;4878652;29;20271;-69
2022/04/13 08:36:28;;;;;;;5.53;1.63;;;10.00;83.30;;;;;;4877234;29;20281;-72
2022/04/13 08:38:54;;;;;;;7.83;2.10;;;10.00;81.50;;;;;;4878460;29;20199;-71
2022/04/13 08:41:48;;;;;;;3.70;1.60;;;9.80;80.60;;;;;;4861779;29;20712;-71
2022/04/13 08:44:24;;;;;;;7.17;1.87;;;9.70;81.50;;;;;;4870019;29;20239;-71
2022/04/13 08:46:55;;;;;;;6.87;2.00;;;9.80;80.30;;;;;;4860127;29;20604;-71
2022/04/13 08:49:21;;;;;;;5.50;1.90;;;9.90;79.20;;;;;;4859716;29;20277;-71
2022/04/13 08:51:50;;;;;;;9.37;2.70;;;9.90;78.10;;;;;;4859876;29;20633;-70
2022/04/13 08:54:20;;;;;;;8.77;2.80;;;10.00;76.70;;;;;;4859576;29;20187;-69
2022/04/13 08:56:50;;;;;;;2.90;1.57;;;10.00;75.80;;;;;;4859512;29;20260;-70
2022/04/13 08:59:38;;;;;;;4.27;1.43;;;10.10;76.40;;;;;;4859212;29;20201;-69
2022/04/13 09:02:22;;;;;;;9.57;2.30;;;10.10;76.70;;;;;;4858983;29;20549;-71
2022/04/13 09:04:49;;;;;;;5.53;1.90;;;10.00;76.90;;;;;;4858260;29;20358;-71
2022/04/13 09:07:17;;;;;;;4.03;1.70;;;10.30;75.60;;;;;;4842288;29;20478;-70
2022/04/13 09:09:46;;;;;;;7.97;2.77;;;10.40;70.80;;;;;;4859117;29;20173;-71
2022/04/13 09:12:18;;;;;;;7.03;1.70;;;10.40;70.70;;;;;;4857373;29;20222;-69
2022/04/13 09:14:45;;;;;;;5.23;1.93;;;10.40;71.40;;;;;;4858554;29;20192;-71
2022/04/13 09:17:11;;;;;;;4.83;1.83;;;10.20;72.00;;;;;;4859032;29;20181;-70
2022/04/13 09:19:38;;;;;;;3.47;1.90;;;10.30;71.70;;;;;;4873129;29;20259;-70
2022/04/13 09:22:05;;;;;;;4.57;1.97;;;10.30;71.20;;;;;;4877649;29;20262;-71
2022/04/13 09:24:32;;;;;;;10.37;1.83;;;10.40;72.00;;;;;;4877156;29;20227;-72
2022/04/13 09:27:01;;;;;;;5.33;2.03;;;10.60;71.60;;;;;;4877208;29;20187;-70
2022/04/13 09:29:26;;;;;;;5.37;1.87;;;10.50;71.10;;;;;;4877346;29;20225;-72
2022/04/13 09:31:52;;;;;;;3.97;1.53;;;10.40;71.30;;;;;;4877380;29;20204;-71
2022/04/13 09:34:18;;;;;;;6.17;1.73;;;10.40;70.70;;;;;;4877965;29;20339;-71
2022/04/13 09:36:45;;;;;;;5.30;1.87;;;10.40;70.90;;;;;;4877608;29;20183;-71
2022/04/13 09:39:11;;;;;;;4.97;2.13;;;10.50;70.30;;;;;;4877282;29;20267;-71
2022/04/13 09:41:38;;;;;;;4.33;1.63;;;10.60;71.30;;;;;;4876943;29;20192;-71
2022/04/13 09:44:15;;;;;;;4.73;1.60;;;10.60;72.50;;;;;;4869998;29;20580;-71
2022/04/13 09:46:42;;;;;;;10.93;3.10;;;10.80;71.50;;;;;;4858156;29;20200;-72
2022/04/13 09:49:13;;;;;;;19.60;3.73;;;10.70;72.00;;;;;;4857994;29;20182;-73
2022/04/13 09:51:41;;;;;;;4.93;1.80;;;10.90;72.50;;;;;;4858124;29;20177;-67
2022/04/13 09:54:08;;;;;;;5.27;1.77;;;11.00;71.00;;;;;;4858154;29;20634;-72
2022/04/13 09:56:35;;;;;;;9.47;1.77;;;11.10;70.30;;;;;;4856857;29;20686;-73
2022/04/13 09:59:01;;;;;;;2.50;1.20;;;11.10;69.50;;;;;;4857797;29;20242;-73
2022/04/13 10:01:28;;;;;;;8.10;2.13;;;11.20;69.10;;;;;;4858136;29;20642;-74
2022/04/13 10:03:57;;;;;;;11.63;2.13;;;11.40;68.70;;;;;;4841512;29;20233;-72
2022/04/13 10:06:29;;;;;;;5.23;2.03;;;11.10;67.50;;;;;;4856780;29;20210;-72
2022/04/13 10:09:00;;;;;;;6.23;2.00;;;11.10;67.10;;;;;;4841945;29;20208;-74
2022/04/13 10:11:26;;;;;;;6.60;2.33;;;10.90;66.90;;;;;;4857940;29;20277;-72
2022/04/13 10:13:52;;;;;;;11.47;2.23;;;11.00;67.50;;;;;;4841601;29;20255;-71
2022/04/13 10:16:18;;;;;;;5.17;2.00;;;11.20;68.20;;;;;;4858589;29;20178;-70
2022/04/13 10:19:04;;;;;;;3.93;1.90;;;11.40;66.80;;;;;;4848765;29;20236;-73
2022/04/13 10:21:47;;;;;;;3.83;1.57;;;11.30;65.90;;;;;;4876892;29;20660;-70
2022/04/13 10:24:19;;;;;;;5.77;2.10;;;11.20;66.60;;;;;;4876517;29;20228;-72
2022/04/13 10:27:08;;;;;;;17.53;2.57;;;11.40;67.60;;;;;;4876013;29;20180;-71
2022/04/13 10:29:36;;;;;;;10.20;1.40;;;11.50;67.80;;;;;;4875989;29;20488;-71
2022/04/13 10:32:05;;;;;;;4.80;1.83;;;11.70;66.00;;;;;;4859028;29;20184;-70
2022/04/13 10:34:32;;;;;;;7.47;2.00;;;11.60;64.60;;;;;;4875849;29;20198;-71
2022/04/13 10:36:58;;;;;;;6.97;2.30;;;11.90;65.50;;;;;;4875055;29;20205;-69
2022/04/13 10:39:24;;;;;;;8.00;2.10;;;12.00;64.70;;;;;;4876250;29;20312;-72
2022/04/13 10:41:50;;;;;;;4.50;1.90;;;11.90;65.20;;;;;;4876501;29;20613;-71
2022/04/13 10:44:33;;;;;;;5.27;1.60;;;11.60;64.10;;;;;;4876457;29;20227;-70
2022/04/13 10:47:04;;;;;;;3.67;1.30;;;11.30;63.90;;;;;;4876199;29;20189;-71
2022/04/13 10:49:44;;;;;;;4.33;1.93;;;11.50;64.10;;;;;;4876859;29;20218;-72
2022/04/13 10:52:23;;;;;;;3.40;1.83;;;11.60;64.00;;;;;;4880345;29;20535;-72
2022/04/13 10:55:02;;;;;;;10.87;2.50;;;12.00;63.60;;;;;;4879311;29;20238;-72
2022/04/13 10:57:39;;;;;;;3.93;1.70;;;12.30;63.60;;;;;;4880079;29;20270;-71
2022/04/13 11:00:07;;;;;;;4.30;1.60;;;12.50;62.80;;;;;;4863037;29;20176;-72
2022/04/13 11:02:57;;;;;;;12.40;2.20;;;12.50;62.30;;;;;;4879841;29;20190;-71
2022/04/13 11:05:25;;;;;;;6.27;1.47;;;12.50;62.90;;;;;;4878814;29;20286;-70
2022/04/13 11:07:58;;;;;;;6.17;2.40;;;12.90;61.80;;;;;;4879722;29;20193;-71
2022/04/13 11:10:25;;;;;;;2.97;1.57;;;13.10;61.60;;;;;;4863280;29;20219;-70
2022/04/13 11:12:52;;;;;;;8.30;2.43;;;12.90;59.60;;;;;;4879525;29;20199;-71
2022/04/13 11:15:38;;;;;;;5.30;2.13;;;12.50;61.10;;;;;;4863199;29;20192;-72
2022/04/13 11:18:17;;;;;;;11.10;2.83;;;12.60;61.40;;;;;;4878389;29;20212;-71
2022/04/13 11:21:01;;;;;;;5.13;2.20;;;12.60;60.90;;;;;;4879657;29;20199;-66
2022/04/13 11:23:51;;;;;;;4.50;1.57;;;12.60;61.40;;;;;;4879947;29;20229;-70
2022/04/13 11:26:26;;;;;;;4.47;2.13;;;12.80;61.00;;;;;;4879946;29;20283;-69
2022/04/13 11:29:17;;;;;;;6.70;1.90;;;13.00;60.10;;;;;;4879240;29;20295;-70
2022/04/13 11:32:01;;;;;;;8.03;2.30;;;13.10;60.10;;;;;;4880293;29;20633;-68
2022/04/13 11:34:37;;;;;;;7.57;2.17;;;13.00;59.50;;;;;;4879828;29;20634;-71
2022/04/13 11:37:05;;;;;;;5.27;1.77;;;13.50;59.30;;;;;;4879151;29;20186;-69
2022/04/13 11:39:55;;;;;;;13.50;2.20;;;13.30;58.50;;;;;;4879803;29;20215;-71
2022/04/13 11:42:26;;;;;;;2.93;1.43;;;14.50;58.10;;;;;;4879755;29;20275;-70
2022/04/13 11:44:55;;;;;;;7.13;2.10;;;15.90;55.10;;;;;;4878614;29;20254;-71
2022/04/13 11:47:22;;;;;;;6.87;1.60;;;16.00;53.50;;;;;;4879403;29;20705;-71
2022/04/13 11:49:56;;;;;;;6.23;2.10;;;16.90;52.60;;;;;;4862660;29;20199;-69
2022/04/13 11:52:44;;;;;;;5.77;1.87;;;17.10;52.10;;;;;;4879388;29;20183;-72
2022/04/13 11:55:24;;;;;;;5.30;2.00;;;16.30;52.10;;;;;;4878992;29;20224;-71
2022/04/13 11:58:08;;;;;;;5.27;1.80;;;15.50;53.10;;;;;;4879147;29;20479;-72
2022/04/13 12:00:44;;;;;;;4.13;1.93;;;15.40;54.00;;;;;;4879081;29;20378;-71
2022/04/13 12:03:13;;;;;;;7.10;1.97;;;16.20;52.90;;;;;;4878600;29;20275;-73
2022/04/13 12:05:50;;;;;;;6.43;2.20;;;17.50;51.00;;;;;;4878364;29;20187;-73
2022/04/13 12:08:18;;;;;;;5.37;2.17;;;16.00;51.50;;;;;;4879777;29;20170;-75
2022/04/13 12:11:01;;;;;;;2.83;1.50;;;15.80;52.60;;;;;;4879205;29;20180;-73
2022/04/13 12:13:33;;;;;;;6.13;2.10;;;16.10;51.50;;;;;;4878839;29;20218;-72
2022/04/13 12:15:59;;;;;;;5.63;1.80;;;15.80;51.60;;;;;;4862138;29;20202;-72
2022/04/13 12:18:26;;;;;;;10.63;2.47;;;16.30;51.40;;;;;;4879004;29;20194;-72
2022/04/13 12:21:05;;;;;;;6.50;2.00;;;17.30;50.60;;;;;;4878735;29;20634;-74
2022/04/13 12:23:38;;;;;;;5.30;1.40;;;16.30;50.00;;;;;;4879293;29;20222;-72
2022/04/13 12:26:05;;;;;;;5.57;1.73;;;15.30;51.60;;;;;;4862087;29;20275;-73
2022/04/13 12:28:31;;;;;;;4.87;1.80;;;15.20;52.20;;;;;;4879055;29;20617;-74
2022/04/13 12:30:58;;;;;;;7.43;1.47;;;15.30;51.50;;;;;;4878639;29;20185;-73
2022/04/13 12:33:26;;;;;;;3.90;1.20;;;15.40;50.70;;;;;;4879304;29;20203;-75
2022/04/13 12:35:54;;;;;;;6.23;1.47;;;15.30;49.90;;;;;;4878717;29;20735;-75
2022/04/13 12:38:47;;;;;;;3.23;1.30;;;15.70;49.80;;;;;;4878776;29;20264;-72
2022/04/13 12:41:17;;;;;;;2.60;1.00;;;16.50;48.10;;;;;;4875858;29;20545;-73
2022/04/13 12:43:56;;;;;;;5.13;2.57;;;16.30;47.20;;;;;;4860531;29;20314;-56
2022/04/13 12:46:23;;;;;;;6.07;1.60;;;15.90;48.20;;;;;;4878371;29;20202;-67
2022/04/13 12:48:51;;;;;;;7.97;1.50;;;16.00;47.70;;;;;;4878098;29;20182;-64
2022/04/13 12:51:18;;;;;;;8.23;1.47;;;15.50;46.70;;;;;;4878342;29;20180;-62
2022/04/13 12:53:58;;;;;;;8.33;1.97;;;15.20;47.70;;;;;;4878414;29;20283;-63